sensor_id;sensor_type;location;lat;lon;timestamp;temperature;humidity
42037;DHT22;30340;52.004;5.908;2023-07-16T00:00:46;19.70;85.40
42037;DHT22;30340;52.004;5.908;2023-07-16T00:03:12;19.70;85.20
42037;DHT22;30340;52.004;5.908;2023-07-16T00:05:39;19.60;84.70
42037;DHT22;30340;52.004;5.908;2023-07-16T00:08:05;19.60;84.40
42037;DHT22;30340;52.004;5.908;2023-07-16T00:10:36;19.60;84.00
42037;DHT22;30340;52.004;5.908;2023-07-16T00:13:05;19.50;83.80
42037;DHT22;30340;52.004;5.908;2023-07-16T00:15:31;19.50;83.40
42037;DHT22;30340;52.004;5.908;2023-07-16T00:17:57;19.40;83.00
42037;DHT22;30340;52.004;5.908;2023-07-16T00:20:22;19.40;82.50
42037;DHT22;30340;52.004;5.908;2023-07-16T00:22:49;19.40;81.70
42037;DHT22;30340;52.004;5.908;2023-07-16T00:25:15;19.30;81.70
42037;DHT22;30340;52.004;5.908;2023-07-16T00:27:41;19.40;81.70
42037;DHT22;30340;52.004;5.908;2023-07-16T00:30:07;19.40;81.60
42037;DHT22;30340;52.004;5.908;2023-07-16T00:32:33;19.40;81.70
42037;DHT22;30340;52.004;5.908;2023-07-16T00:34:59;19.40;81.70
42037;DHT22;30340;52.004;5.908;2023-07-16T00:37:24;19.40;81.50
42037;DHT22;30340;52.004;5.908;2023-07-16T00:39:50;19.40;81.60
42037;DHT22;30340;52.004;5.908;2023-07-16T00:42:16;19.30;81.70
42037;DHT22;30340;52.004;5.908;2023-07-16T00:44:42;19.30;82.00
42037;DHT22;30340;52.004;5.908;2023-07-16T00:47:08;19.30;82.40
42037;DHT22;30340;52.004;5.908;2023-07-16T00:49:35;19.20;82.70
42037;DHT22;30340;52.004;5.908;2023-07-16T00:52:01;19.10;83.20
42037;DHT22;30340;52.004;5.908;2023-07-16T00:54:29;19.10;83.70
42037;DHT22;30340;52.004;5.908;2023-07-16T00:56:55;19.10;83.90
42037;DHT22;30340;52.004;5.908;2023-07-16T00:59:21;19.10;84.40
42037;DHT22;30340;52.004;5.908;2023-07-16T01:01:46;19.00;84.90
42037;DHT22;30340;52.004;5.908;2023-07-16T01:04:12;19.00;84.90
42037;DHT22;30340;52.004;5.908;2023-07-16T01:06:44;19.00;84.90
42037;DHT22;30340;52.004;5.908;2023-07-16T01:09:17;19.10;84.90
42037;DHT22;30340;52.004;5.908;2023-07-16T01:11:44;19.00;84.60
42037;DHT22;30340;52.004;5.908;2023-07-16T01:14:10;19.00;84.20
42037;DHT22;30340;52.004;5.908;2023-07-16T01:16:37;19.00;83.90
42037;DHT22;30340;52.004;5.908;2023-07-16T01:19:03;19.00;83.60
42037;DHT22;30340;52.004;5.908;2023-07-16T01:29:41;19.00;81.70
42037;DHT22;30340;52.004;5.908;2023-07-16T01:32:08;19.00;81.30
42037;DHT22;30340;52.004;5.908;2023-07-16T01:34:36;18.90;80.60
42037;DHT22;30340;52.004;5.908;2023-07-16T01:37:03;18.90;80.60
42037;DHT22;30340;52.004;5.908;2023-07-16T01:39:30;18.80;80.30
42037;DHT22;30340;52.004;5.908;2023-07-16T01:41:56;18.70;80.30
42037;DHT22;30340;52.004;5.908;2023-07-16T01:44:21;18.70;80.40
42037;DHT22;30340;52.004;5.908;2023-07-16T01:46:59;18.70;80.20
42037;DHT22;30340;52.004;5.908;2023-07-16T01:49:29;18.60;79.90
42037;DHT22;30340;52.004;5.908;2023-07-16T01:51:54;18.60;79.90
42037;DHT22;30340;52.004;5.908;2023-07-16T01:54:20;18.60;79.60
42037;DHT22;30340;52.004;5.908;2023-07-16T01:56:45;18.60;79.50
42037;DHT22;30340;52.004;5.908;2023-07-16T01:59:11;18.50;79.30
42037;DHT22;30340;52.004;5.908;2023-07-16T02:01:36;18.60;79.30
42037;DHT22;30340;52.004;5.908;2023-07-16T02:04:02;18.60;79.10
42037;DHT22;30340;52.004;5.908;2023-07-16T02:06:28;18.50;78.80
42037;DHT22;30340;52.004;5.908;2023-07-16T02:08:53;18.50;78.80
42037;DHT22;30340;52.004;5.908;2023-07-16T02:11:19;18.50;78.80
42037;DHT22;30340;52.004;5.908;2023-07-16T02:13:44;18.40;78.70
42037;DHT22;30340;52.004;5.908;2023-07-16T02:16:10;18.30;79.30
42037;DHT22;30340;52.004;5.908;2023-07-16T02:18:35;18.40;78.80
42037;DHT22;30340;52.004;5.908;2023-07-16T02:21:01;18.30;78.70
42037;DHT22;30340;52.004;5.908;2023-07-16T02:23:27;18.30;78.90
42037;DHT22;30340;52.004;5.908;2023-07-16T02:25:53;18.30;79.00
42037;DHT22;30340;52.004;5.908;2023-07-16T02:28:18;18.30;79.00
42037;DHT22;30340;52.004;5.908;2023-07-16T02:30:44;18.20;79.00
42037;DHT22;30340;52.004;5.908;2023-07-16T02:33:10;18.20;79.10
42037;DHT22;30340;52.004;5.908;2023-07-16T02:35:35;18.20;79.10
42037;DHT22;30340;52.004;5.908;2023-07-16T02:38:01;18.20;79.10
42037;DHT22;30340;52.004;5.908;2023-07-16T02:40:26;18.10;79.10
42037;DHT22;30340;52.004;5.908;2023-07-16T02:42:52;18.10;79.30
42037;DHT22;30340;52.004;5.908;2023-07-16T02:45:18;18.10;79.40
42037;DHT22;30340;52.004;5.908;2023-07-16T02:47:43;18.10;79.30
42037;DHT22;30340;52.004;5.908;2023-07-16T02:50:09;18.00;79.20
42037;DHT22;30340;52.004;5.908;2023-07-16T02:52:35;18.00;79.30
42037;DHT22;30340;52.004;5.908;2023-07-16T02:55:00;18.00;79.40
42037;DHT22;30340;52.004;5.908;2023-07-16T02:57:26;18.00;79.60
42037;DHT22;30340;52.004;5.908;2023-07-16T02:59:52;17.90;79.60
42037;DHT22;30340;52.004;5.908;2023-07-16T03:02:17;17.90;79.80
42037;DHT22;30340;52.004;5.908;2023-07-16T03:04:43;17.90;79.90
42037;DHT22;30340;52.004;5.908;2023-07-16T03:07:08;17.90;80.10
42037;DHT22;30340;52.004;5.908;2023-07-16T03:09:34;17.90;80.30
42037;DHT22;30340;52.004;5.908;2023-07-16T03:11:59;17.90;80.60
42037;DHT22;30340;52.004;5.908;2023-07-16T03:14:25;17.80;80.90
42037;DHT22;30340;52.004;5.908;2023-07-16T03:16:50;17.80;81.40
42037;DHT22;30340;52.004;5.908;2023-07-16T03:19:16;17.80;81.70
42037;DHT22;30340;52.004;5.908;2023-07-16T03:21:41;17.80;81.80
42037;DHT22;30340;52.004;5.908;2023-07-16T03:24:07;17.80;82.30
42037;DHT22;30340;52.004;5.908;2023-07-16T03:26:32;17.80;82.60
42037;DHT22;30340;52.004;5.908;2023-07-16T03:28:58;17.80;83.20
42037;DHT22;30340;52.004;5.908;2023-07-16T03:31:24;17.80;83.70
42037;DHT22;30340;52.004;5.908;2023-07-16T03:33:49;17.80;83.80
42037;DHT22;30340;52.004;5.908;2023-07-16T03:36:15;17.80;83.90
42037;DHT22;30340;52.004;5.908;2023-07-16T03:38:40;17.80;83.90
42037;DHT22;30340;52.004;5.908;2023-07-16T03:41:06;17.80;83.70
42037;DHT22;30340;52.004;5.908;2023-07-16T03:43:31;17.90;83.60
42037;DHT22;30340;52.004;5.908;2023-07-16T03:45:57;17.80;83.30
42037;DHT22;30340;52.004;5.908;2023-07-16T03:48:22;17.90;83.20
42037;DHT22;30340;52.004;5.908;2023-07-16T03:50:48;17.90;83.10
42037;DHT22;30340;52.004;5.908;2023-07-16T03:53:14;17.80;83.00
42037;DHT22;30340;52.004;5.908;2023-07-16T03:55:39;17.80;82.90
42037;DHT22;30340;52.004;5.908;2023-07-16T03:58:05;17.80;82.80
42037;DHT22;30340;52.004;5.908;2023-07-16T04:00:30;17.80;82.70
42037;DHT22;30340;52.004;5.908;2023-07-16T04:02:57;17.90;82.50
42037;DHT22;30340;52.004;5.908;2023-07-16T04:05:22;17.90;82.10
42037;DHT22;30340;52.004;5.908;2023-07-16T04:07:48;17.90;81.70
42037;DHT22;30340;52.004;5.908;2023-07-16T04:10:13;17.90;81.40
42037;DHT22;30340;52.004;5.908;2023-07-16T04:12:39;17.90;81.20
42037;DHT22;30340;52.004;5.908;2023-07-16T04:15:07;17.80;81.10
42037;DHT22;30340;52.004;5.908;2023-07-16T04:17:34;17.80;81.10
42037;DHT22;30340;52.004;5.908;2023-07-16T04:20:00;17.90;81.20
42037;DHT22;30340;52.004;5.908;2023-07-16T04:22:25;17.90;81.50
42037;DHT22;30340;52.004;5.908;2023-07-16T04:24:51;17.90;81.90
42037;DHT22;30340;52.004;5.908;2023-07-16T04:27:16;17.90;82.40
42037;DHT22;30340;52.004;5.908;2023-07-16T04:29:42;17.90;82.70
42037;DHT22;30340;52.004;5.908;2023-07-16T04:32:07;17.90;83.10
42037;DHT22;30340;52.004;5.908;2023-07-16T04:34:33;17.90;83.30
42037;DHT22;30340;52.004;5.908;2023-07-16T04:36:58;18.00;83.50
42037;DHT22;30340;52.004;5.908;2023-07-16T04:39:24;18.00;83.60
42037;DHT22;30340;52.004;5.908;2023-07-16T04:41:50;18.00;83.70
42037;DHT22;30340;52.004;5.908;2023-07-16T04:44:15;18.00;83.60
42037;DHT22;30340;52.004;5.908;2023-07-16T04:46:41;18.00;83.30
42037;DHT22;30340;52.004;5.908;2023-07-16T04:49:06;18.00;83.00
42037;DHT22;30340;52.004;5.908;2023-07-16T04:51:32;18.00;82.70
42037;DHT22;30340;52.004;5.908;2023-07-16T04:53:58;18.00;82.20
42037;DHT22;30340;52.004;5.908;2023-07-16T04:56:23;18.00;81.40
42037;DHT22;30340;52.004;5.908;2023-07-16T04:58:49;18.00;81.00
42037;DHT22;30340;52.004;5.908;2023-07-16T05:01:14;18.10;80.30
42037;DHT22;30340;52.004;5.908;2023-07-16T05:03:40;18.10;79.50
42037;DHT22;30340;52.004;5.908;2023-07-16T05:06:06;18.20;78.70
42037;DHT22;30340;52.004;5.908;2023-07-16T05:08:31;18.20;78.20
42037;DHT22;30340;52.004;5.908;2023-07-16T05:10:57;18.20;77.30
42037;DHT22;30340;52.004;5.908;2023-07-16T05:13:24;18.20;76.90
42037;DHT22;30340;52.004;5.908;2023-07-16T05:15:49;18.20;76.80
42037;DHT22;30340;52.004;5.908;2023-07-16T05:18:16;18.20;76.90
42037;DHT22;30340;52.004;5.908;2023-07-16T05:20:41;18.80;76.30
42037;DHT22;30340;52.004;5.908;2023-07-16T05:23:07;19.50;73.90
42037;DHT22;30340;52.004;5.908;2023-07-16T05:25:32;20.20;71.70
42037;DHT22;30340;52.004;5.908;2023-07-16T05:27:58;20.70;69.10
42037;DHT22;30340;52.004;5.908;2023-07-16T05:30:23;20.90;67.20
42037;DHT22;30340;52.004;5.908;2023-07-16T05:32:49;21.20;65.80
42037;DHT22;30340;52.004;5.908;2023-07-16T05:35:14;21.30;64.80
42037;DHT22;30340;52.004;5.908;2023-07-16T05:37:40;21.50;64.30
42037;DHT22;30340;52.004;5.908;2023-07-16T05:40:06;21.80;63.40
42037;DHT22;30340;52.004;5.908;2023-07-16T05:42:34;22.10;62.80
42037;DHT22;30340;52.004;5.908;2023-07-16T05:44:59;22.20;61.60
42037;DHT22;30340;52.004;5.908;2023-07-16T05:47:25;22.50;61.30
42037;DHT22;30340;52.004;5.908;2023-07-16T05:49:50;22.60;60.50
42037;DHT22;30340;52.004;5.908;2023-07-16T05:52:16;22.60;60.40
42037;DHT22;30340;52.004;5.908;2023-07-16T05:54:43;22.40;59.60
42037;DHT22;30340;52.004;5.908;2023-07-16T05:57:10;21.60;60.70
42037;DHT22;30340;52.004;5.908;2023-07-16T05:59:36;21.60;61.90
42037;DHT22;30340;52.004;5.908;2023-07-16T06:02:03;21.70;62.00
42037;DHT22;30340;52.004;5.908;2023-07-16T06:04:28;22.40;61.30
42037;DHT22;30340;52.004;5.908;2023-07-16T06:06:55;22.70;60.10
42037;DHT22;30340;52.004;5.908;2023-07-16T06:09:21;23.20;59.70
42037;DHT22;30340;52.004;5.908;2023-07-16T06:11:47;23.30;58.60
42037;DHT22;30340;52.004;5.908;2023-07-16T06:14:13;23.20;58.30
42037;DHT22;30340;52.004;5.908;2023-07-16T06:16:41;23.20;58.30
42037;DHT22;30340;52.004;5.908;2023-07-16T06:19:07;23.30;58.60
42037;DHT22;30340;52.004;5.908;2023-07-16T06:21:33;23.30;58.30
42037;DHT22;30340;52.004;5.908;2023-07-16T06:23:58;23.20;58.60
42037;DHT22;30340;52.004;5.908;2023-07-16T06:26:24;23.00;58.50
42037;DHT22;30340;52.004;5.908;2023-07-16T06:28:49;22.80;59.20
42037;DHT22;30340;52.004;5.908;2023-07-16T06:31:18;22.60;59.60
42037;DHT22;30340;52.004;5.908;2023-07-16T06:33:44;22.60;60.00
42037;DHT22;30340;52.004;5.908;2023-07-16T06:36:15;22.60;60.20
42037;DHT22;30340;52.004;5.908;2023-07-16T06:38:40;22.40;60.30
42037;DHT22;30340;52.004;5.908;2023-07-16T06:41:06;22.10;60.40
42037;DHT22;30340;52.004;5.908;2023-07-16T06:43:32;21.80;61.10
42037;DHT22;30340;52.004;5.908;2023-07-16T06:45:57;21.70;61.60
42037;DHT22;30340;52.004;5.908;2023-07-16T06:48:23;21.60;61.30
42037;DHT22;30340;52.004;5.908;2023-07-16T06:50:50;21.50;61.60
42037;DHT22;30340;52.004;5.908;2023-07-16T06:53:15;21.40;62.00
42037;DHT22;30340;52.004;5.908;2023-07-16T06:55:41;21.30;61.70
42037;DHT22;30340;52.004;5.908;2023-07-16T06:58:10;21.30;62.10
42037;DHT22;30340;52.004;5.908;2023-07-16T07:00:36;21.50;62.40
42037;DHT22;30340;52.004;5.908;2023-07-16T07:03:02;21.50;61.50
42037;DHT22;30340;52.004;5.908;2023-07-16T07:05:27;21.50;61.80
42037;DHT22;30340;52.004;5.908;2023-07-16T07:07:53;21.60;61.60
42037;DHT22;30340;52.004;5.908;2023-07-16T07:10:18;21.70;61.70
42037;DHT22;30340;52.004;5.908;2023-07-16T07:12:44;21.90;61.60
42037;DHT22;30340;52.004;5.908;2023-07-16T07:15:09;21.90;61.50
42037;DHT22;30340;52.004;5.908;2023-07-16T07:17:35;21.90;60.60
42037;DHT22;30340;52.004;5.908;2023-07-16T07:20:02;21.80;60.80
42037;DHT22;30340;52.004;5.908;2023-07-16T07:22:28;21.90;61.00
42037;DHT22;30340;52.004;5.908;2023-07-16T07:24:54;21.90;61.20
42037;DHT22;30340;52.004;5.908;2023-07-16T07:27:19;22.00;60.90
42037;DHT22;30340;52.004;5.908;2023-07-16T07:29:45;21.90;60.90
42037;DHT22;30340;52.004;5.908;2023-07-16T07:32:11;21.90;60.70
42037;DHT22;30340;52.004;5.908;2023-07-16T07:34:38;21.90;60.70
42037;DHT22;30340;52.004;5.908;2023-07-16T07:37:04;21.90;60.40
42037;DHT22;30340;52.004;5.908;2023-07-16T07:39:30;21.90;60.60
42037;DHT22;30340;52.004;5.908;2023-07-16T07:41:56;22.00;60.70
42037;DHT22;30340;52.004;5.908;2023-07-16T07:44:21;22.00;60.30
42037;DHT22;30340;52.004;5.908;2023-07-16T07:46:47;21.90;60.50
42037;DHT22;30340;52.004;5.908;2023-07-16T07:49:12;21.80;60.50
42037;DHT22;30340;52.004;5.908;2023-07-16T07:51:38;21.80;60.30
42037;DHT22;30340;52.004;5.908;2023-07-16T07:54:03;21.80;60.50
42037;DHT22;30340;52.004;5.908;2023-07-16T07:56:29;21.90;60.70
42037;DHT22;30340;52.004;5.908;2023-07-16T07:58:55;21.80;60.40
42037;DHT22;30340;52.004;5.908;2023-07-16T08:01:21;21.90;60.70
42037;DHT22;30340;52.004;5.908;2023-07-16T08:03:46;22.00;60.20
42037;DHT22;30340;52.004;5.908;2023-07-16T08:06:12;22.00;60.50
42037;DHT22;30340;52.004;5.908;2023-07-16T08:08:38;22.10;59.80
42037;DHT22;30340;52.004;5.908;2023-07-16T08:11:03;22.20;60.20
42037;DHT22;30340;52.004;5.908;2023-07-16T08:13:29;22.20;60.00
42037;DHT22;30340;52.004;5.908;2023-07-16T08:15:54;22.10;59.70
42037;DHT22;30340;52.004;5.908;2023-07-16T08:18:20;22.20;59.90
42037;DHT22;30340;52.004;5.908;2023-07-16T08:20:47;22.20;59.70
42037;DHT22;30340;52.004;5.908;2023-07-16T08:23:12;22.30;59.30
42037;DHT22;30340;52.004;5.908;2023-07-16T08:25:38;22.30;59.40
42037;DHT22;30340;52.004;5.908;2023-07-16T08:28:04;22.30;59.10
42037;DHT22;30340;52.004;5.908;2023-07-16T08:30:31;22.20;59.30
42037;DHT22;30340;52.004;5.908;2023-07-16T08:32:57;22.10;59.40
42037;DHT22;30340;52.004;5.908;2023-07-16T08:35:22;22.10;59.40
42037;DHT22;30340;52.004;5.908;2023-07-16T08:37:48;22.00;59.80
42037;DHT22;30340;52.004;5.908;2023-07-16T08:40:13;21.80;59.90
42037;DHT22;30340;52.004;5.908;2023-07-16T08:42:40;21.90;60.30
42037;DHT22;30340;52.004;5.908;2023-07-16T08:45:10;22.00;60.20
42037;DHT22;30340;52.004;5.908;2023-07-16T08:47:36;22.10;60.10
42037;DHT22;30340;52.004;5.908;2023-07-16T08:50:03;22.20;60.30
42037;DHT22;30340;52.004;5.908;2023-07-16T08:52:29;22.40;60.00
42037;DHT22;30340;52.004;5.908;2023-07-16T08:54:55;22.60;60.00
42037;DHT22;30340;52.004;5.908;2023-07-16T08:57:22;22.90;59.90
42037;DHT22;30340;52.004;5.908;2023-07-16T08:59:48;23.10;58.60
42037;DHT22;30340;52.004;5.908;2023-07-16T09:02:17;23.20;59.10
42037;DHT22;30340;52.004;5.908;2023-07-16T09:04:42;23.30;59.00
42037;DHT22;30340;52.004;5.908;2023-07-16T09:07:08;23.40;58.20
42037;DHT22;30340;52.004;5.908;2023-07-16T09:09:34;23.30;57.50
42037;DHT22;30340;52.004;5.908;2023-07-16T09:11:59;23.30;57.50
42037;DHT22;30340;52.004;5.908;2023-07-16T09:14:26;23.20;57.90
42037;DHT22;30340;52.004;5.908;2023-07-16T09:16:52;23.20;58.10
42037;DHT22;30340;52.004;5.908;2023-07-16T09:19:18;23.20;58.00
42037;DHT22;30340;52.004;5.908;2023-07-16T09:21:51;23.20;57.80
42037;DHT22;30340;52.004;5.908;2023-07-16T09:24:18;23.20;57.90
42037;DHT22;30340;52.004;5.908;2023-07-16T09:26:54;23.30;58.10
42037;DHT22;30340;52.004;5.908;2023-07-16T09:29:21;23.40;58.00
42037;DHT22;30340;52.004;5.908;2023-07-16T09:31:59;23.50;57.60
42037;DHT22;30340;52.004;5.908;2023-07-16T09:34:29;23.40;58.10
42037;DHT22;30340;52.004;5.908;2023-07-16T09:36:56;23.40;57.70
42037;DHT22;30340;52.004;5.908;2023-07-16T09:39:22;23.40;57.50
42037;DHT22;30340;52.004;5.908;2023-07-16T09:41:49;23.30;57.50
42037;DHT22;30340;52.004;5.908;2023-07-16T09:44:15;23.30;57.80
42037;DHT22;30340;52.004;5.908;2023-07-16T09:46:42;23.10;57.70
42037;DHT22;30340;52.004;5.908;2023-07-16T09:49:08;22.90;58.40
42037;DHT22;30340;52.004;5.908;2023-07-16T09:51:39;22.80;58.70
42037;DHT22;30340;52.004;5.908;2023-07-16T09:54:05;22.70;59.00
42037;DHT22;30340;52.004;5.908;2023-07-16T09:56:40;22.70;59.10
42037;DHT22;30340;52.004;5.908;2023-07-16T09:59:11;22.70;59.20
42037;DHT22;30340;52.004;5.908;2023-07-16T10:01:38;22.70;59.00
42037;DHT22;30340;52.004;5.908;2023-07-16T10:07:19;22.60;59.00
42037;DHT22;30340;52.004;5.908;2023-07-16T10:09:41;22.70;59.20
42037;DHT22;30340;52.004;5.908;2023-07-16T10:14:53;23.00;58.70
42037;DHT22;30340;52.004;5.908;2023-07-16T10:17:23;23.10;58.30
42037;DHT22;30340;52.004;5.908;2023-07-16T10:19:59;23.20;58.10
42037;DHT22;30340;52.004;5.908;2023-07-16T10:22:43;23.40;58.20
42037;DHT22;30340;52.004;5.908;2023-07-16T10:25:09;23.50;57.60
42037;DHT22;30340;52.004;5.908;2023-07-16T10:27:35;23.50;57.10
42037;DHT22;30340;52.004;5.908;2023-07-16T10:30:01;23.40;57.40
42037;DHT22;30340;52.004;5.908;2023-07-16T10:32:29;23.50;57.80
42037;DHT22;30340;52.004;5.908;2023-07-16T10:34:55;23.50;57.80
42037;DHT22;30340;52.004;5.908;2023-07-16T10:37:21;23.50;57.70
42037;DHT22;30340;52.004;5.908;2023-07-16T10:39:54;23.50;57.60
42037;DHT22;30340;52.004;5.908;2023-07-16T10:42:22;23.50;57.30
42037;DHT22;30340;52.004;5.908;2023-07-16T10:44:56;23.30;57.10
42037;DHT22;30340;52.004;5.908;2023-07-16T10:47:24;23.20;56.70
42037;DHT22;30340;52.004;5.908;2023-07-16T10:49:51;23.20;57.10
42037;DHT22;30340;52.004;5.908;2023-07-16T10:52:21;23.30;57.40
42037;DHT22;30340;52.004;5.908;2023-07-16T10:54:47;23.30;57.40
42037;DHT22;30340;52.004;5.908;2023-07-16T10:57:15;23.40;57.40
42037;DHT22;30340;52.004;5.908;2023-07-16T10:59:42;23.40;57.20
42037;DHT22;30340;52.004;5.908;2023-07-16T11:02:11;23.50;57.30
42037;DHT22;30340;52.004;5.908;2023-07-16T11:04:38;23.50;57.00
42037;DHT22;30340;52.004;5.908;2023-07-16T11:07:05;23.50;57.00
42037;DHT22;30340;52.004;5.908;2023-07-16T11:09:31;23.60;57.30
42037;DHT22;30340;52.004;5.908;2023-07-16T11:12:06;23.60;57.10
42037;DHT22;30340;52.004;5.908;2023-07-16T11:14:32;23.30;57.10
42037;DHT22;30340;52.004;5.908;2023-07-16T11:17:04;23.10;57.40
42037;DHT22;30340;52.004;5.908;2023-07-16T11:19:31;23.00;57.70
42037;DHT22;30340;52.004;5.908;2023-07-16T11:21:57;22.90;58.00
42037;DHT22;30340;52.004;5.908;2023-07-16T11:24:23;22.90;58.30
42037;DHT22;30340;52.004;5.908;2023-07-16T11:26:54;22.90;58.50
42037;DHT22;30340;52.004;5.908;2023-07-16T11:29:23;23.00;58.50
42037;DHT22;30340;52.004;5.908;2023-07-16T11:31:53;23.10;58.30
42037;DHT22;30340;52.004;5.908;2023-07-16T11:34:21;23.10;58.30
42037;DHT22;30340;52.004;5.908;2023-07-16T11:36:48;23.20;58.50
42037;DHT22;30340;52.004;5.908;2023-07-16T11:39:14;23.20;58.60
42037;DHT22;30340;52.004;5.908;2023-07-16T11:41:39;23.40;58.70
42037;DHT22;30340;52.004;5.908;2023-07-16T11:44:07;23.60;58.40
42037;DHT22;30340;52.004;5.908;2023-07-16T11:46:34;23.70;57.90
42037;DHT22;30340;52.004;5.908;2023-07-16T11:49:00;23.60;57.50
42037;DHT22;30340;52.004;5.908;2023-07-16T11:51:26;23.50;57.70
42037;DHT22;30340;52.004;5.908;2023-07-16T11:53:52;23.30;57.60
42037;DHT22;30340;52.004;5.908;2023-07-16T11:56:17;23.20;58.00
42037;DHT22;30340;52.004;5.908;2023-07-16T11:58:43;23.20;58.60
42037;DHT22;30340;52.004;5.908;2023-07-16T12:01:09;23.10;59.20
42037;DHT22;30340;52.004;5.908;2023-07-16T12:03:35;23.00;59.40
42037;DHT22;30340;52.004;5.908;2023-07-16T12:06:00;23.00;59.60
42037;DHT22;30340;52.004;5.908;2023-07-16T12:08:26;23.10;59.70
42037;DHT22;30340;52.004;5.908;2023-07-16T12:10:51;23.30;59.50
42037;DHT22;30340;52.004;5.908;2023-07-16T12:13:17;23.60;59.20
42037;DHT22;30340;52.004;5.908;2023-07-16T12:15:43;23.80;58.80
42037;DHT22;30340;52.004;5.908;2023-07-16T12:18:08;24.00;58.40
42037;DHT22;30340;52.004;5.908;2023-07-16T12:20:35;24.20;58.00
42037;DHT22;30340;52.004;5.908;2023-07-16T12:23:01;24.20;57.90
42037;DHT22;30340;52.004;5.908;2023-07-16T12:25:28;24.20;57.70
42037;DHT22;30340;52.004;5.908;2023-07-16T12:27:54;24.20;57.30
42037;DHT22;30340;52.004;5.908;2023-07-16T12:30:23;24.00;57.70
42037;DHT22;30340;52.004;5.908;2023-07-16T12:32:49;24.00;57.70
42037;DHT22;30340;52.004;5.908;2023-07-16T12:35:15;24.00;57.50
42037;DHT22;30340;52.004;5.908;2023-07-16T12:37:40;23.90;57.60
42037;DHT22;30340;52.004;5.908;2023-07-16T12:40:06;23.90;57.50
42037;DHT22;30340;52.004;5.908;2023-07-16T12:42:32;23.90;57.60
42037;DHT22;30340;52.004;5.908;2023-07-16T12:44:58;24.00;57.50
42037;DHT22;30340;52.004;5.908;2023-07-16T12:47:24;24.10;57.50
42037;DHT22;30340;52.004;5.908;2023-07-16T12:49:49;24.30;57.50
42037;DHT22;30340;52.004;5.908;2023-07-16T12:52:15;24.40;57.50
42037;DHT22;30340;52.004;5.908;2023-07-16T12:54:40;24.50;57.30
42037;DHT22;30340;52.004;5.908;2023-07-16T12:57:06;24.50;57.00
42037;DHT22;30340;52.004;5.908;2023-07-16T12:59:32;24.50;56.70
42037;DHT22;30340;52.004;5.908;2023-07-16T13:01:57;24.50;56.70
42037;DHT22;30340;52.004;5.908;2023-07-16T13:04:23;24.40;56.60
42037;DHT22;30340;52.004;5.908;2023-07-16T13:06:48;24.50;56.70
42037;DHT22;30340;52.004;5.908;2023-07-16T13:09:15;24.30;56.80
42037;DHT22;30340;52.004;5.908;2023-07-16T13:11:41;24.20;57.00
42037;DHT22;30340;52.004;5.908;2023-07-16T13:14:07;24.20;57.30
42037;DHT22;30340;52.004;5.908;2023-07-16T13:16:33;24.30;57.30
42037;DHT22;30340;52.004;5.908;2023-07-16T13:18:58;24.40;57.00
42037;DHT22;30340;52.004;5.908;2023-07-16T13:21:24;24.30;56.70
42037;DHT22;30340;52.004;5.908;2023-07-16T13:23:49;24.20;56.40
42037;DHT22;30340;52.004;5.908;2023-07-16T13:26:15;24.00;56.60
42037;DHT22;30340;52.004;5.908;2023-07-16T13:28:40;23.90;56.90
42037;DHT22;30340;52.004;5.908;2023-07-16T13:31:06;23.80;57.00
42037;DHT22;30340;52.004;5.908;2023-07-16T13:33:32;23.90;57.20
42037;DHT22;30340;52.004;5.908;2023-07-16T13:35:57;24.00;57.10
42037;DHT22;30340;52.004;5.908;2023-07-16T13:38:26;24.10;57.20
42037;DHT22;30340;52.004;5.908;2023-07-16T13:40:52;24.30;57.00
42037;DHT22;30340;52.004;5.908;2023-07-16T13:43:17;24.20;56.90
42037;DHT22;30340;52.004;5.908;2023-07-16T13:45:43;24.20;57.20
42037;DHT22;30340;52.004;5.908;2023-07-16T13:48:09;24.30;57.30
42037;DHT22;30340;52.004;5.908;2023-07-16T13:50:34;24.30;57.60
42037;DHT22;30340;52.004;5.908;2023-07-16T13:53:00;24.20;57.50
42037;DHT22;30340;52.004;5.908;2023-07-16T13:55:30;24.30;57.40
42037;DHT22;30340;52.004;5.908;2023-07-16T13:57:55;24.40;57.30
42037;DHT22;30340;52.004;5.908;2023-07-16T14:00:22;24.50;56.60
42037;DHT22;30340;52.004;5.908;2023-07-16T14:02:48;24.30;56.40
42037;DHT22;30340;52.004;5.908;2023-07-16T14:05:13;24.50;56.60
42037;DHT22;30340;52.004;5.908;2023-07-16T14:07:39;24.50;56.30
42037;DHT22;30340;52.004;5.908;2023-07-16T14:10:05;24.60;56.30
42037;DHT22;30340;52.004;5.908;2023-07-16T14:12:31;24.90;56.40
42037;DHT22;30340;52.004;5.908;2023-07-16T14:14:56;25.00;55.80
42037;DHT22;30340;52.004;5.908;2023-07-16T14:17:22;25.00;54.90
42037;DHT22;30340;52.004;5.908;2023-07-16T14:19:49;24.90;53.90
42037;DHT22;30340;52.004;5.908;2023-07-16T14:22:14;24.80;53.90
42037;DHT22;30340;52.004;5.908;2023-07-16T14:24:41;24.70;54.10
42037;DHT22;30340;52.004;5.908;2023-07-16T14:27:07;24.80;54.10
42037;DHT22;30340;52.004;5.908;2023-07-16T14:29:34;24.70;53.60
42037;DHT22;30340;52.004;5.908;2023-07-16T14:32:00;24.50;53.70
42037;DHT22;30340;52.004;5.908;2023-07-16T14:34:26;24.60;53.70
42037;DHT22;30340;52.004;5.908;2023-07-16T14:36:52;24.80;53.70
42037;DHT22;30340;52.004;5.908;2023-07-16T14:39:18;24.80;53.60
42037;DHT22;30340;52.004;5.908;2023-07-16T14:41:44;24.70;53.40
42037;DHT22;30340;52.004;5.908;2023-07-16T14:44:09;24.70;53.70
42037;DHT22;30340;52.004;5.908;2023-07-16T14:46:35;24.50;53.10
42037;DHT22;30340;52.004;5.908;2023-07-16T14:49:02;24.30;53.60
42037;DHT22;30340;52.004;5.908;2023-07-16T14:51:28;24.30;53.80
42037;DHT22;30340;52.004;5.908;2023-07-16T14:53:54;24.30;54.00
42037;DHT22;30340;52.004;5.908;2023-07-16T14:56:20;24.30;53.90
42037;DHT22;30340;52.004;5.908;2023-07-16T14:58:46;24.30;54.00
42037;DHT22;30340;52.004;5.908;2023-07-16T15:01:12;24.20;54.20
42037;DHT22;30340;52.004;5.908;2023-07-16T15:03:40;24.20;55.00
42037;DHT22;30340;52.004;5.908;2023-07-16T15:06:06;24.20;54.30
42037;DHT22;30340;52.004;5.908;2023-07-16T15:08:32;24.30;54.40
42037;DHT22;30340;52.004;5.908;2023-07-16T15:10:59;24.50;54.20
42037;DHT22;30340;52.004;5.908;2023-07-16T15:13:24;24.60;53.40
42037;DHT22;30340;52.004;5.908;2023-07-16T15:15:51;24.50;53.00
42037;DHT22;30340;52.004;5.908;2023-07-16T15:18:18;24.50;53.00
42037;DHT22;30340;52.004;5.908;2023-07-16T15:20:44;24.60;52.90
42037;DHT22;30340;52.004;5.908;2023-07-16T15:23:10;24.60;52.00
42037;DHT22;30340;52.004;5.908;2023-07-16T15:25:36;24.60;51.90
42037;DHT22;30340;52.004;5.908;2023-07-16T15:28:02;24.60;52.50
42037;DHT22;30340;52.004;5.908;2023-07-16T15:30:27;24.50;52.90
42037;DHT22;30340;52.004;5.908;2023-07-16T15:32:53;24.50;53.30
42037;DHT22;30340;52.004;5.908;2023-07-16T15:35:18;24.50;53.60
42037;DHT22;30340;52.004;5.908;2023-07-16T15:37:44;24.40;53.90